Time;durP1;ratioP1;P1;durP2;ratioP2;P2;SDS_P1;SDS_P2;PMS_P1;PMS_P2;Temp;Humidity;BMP_temperature;BMP_pressure;BME280_temperature;BME280_humidity;BME280_pressure;Samples;Min_cycle;Max_cycle;Signal;HPM_P1;HPM_P2
2023/09/28 00:00:35;;;;;;;;;;;;;;;22.44;50.34;101259.75;5023463;28;108126;-66
2023/09/28 00:02:45;;;;;;;;;;;;;;;22.41;50.55;101266.25;5038464;27;124104;-66
2023/09/28 00:05:13;;;;;;;;;;;;;;;22.40;50.49;101274.50;5048953;27;123973;-66
2023/09/28 00:07:41;;;;;;;;;;;;;;;22.40;50.47;101263.72;5036318;27;109239;-66
2023/09/28 00:10:12;;;;;;;;;;;;;;;22.40;50.53;101279.91;5031858;27;109178;-66
2023/09/28 00:12:40;;;;;;;;;;;;;;;22.39;50.51;101272.78;5028372;27;124748;-67
2023/09/28 00:15:08;;;;;;;;;;;;;;;22.39;50.63;101267.38;5038340;27;124056;-66
2023/09/28 00:17:37;;;;;;;;;;;;;;;22.40;50.57;101266.41;5038165;27;109439;-66
2023/09/28 00:20:09;;;;;;;;;;;;;;;22.40;50.43;101269.09;5024669;28;107937;-66
2023/09/28 00:22:36;;;;;;;;;;;;;;;22.40;50.43;101274.50;5039006;27;123751;-66
2023/09/28 00:25:09;;;;;;;;;;;;;;;22.35;50.46;101267.66;5031621;27;124042;-66
2023/09/28 00:27:37;;;;;;;;;;;;;;;22.32;50.42;101267.06;5041116;27;109103;-66
2023/09/28 00:30:10;;;;;;;;;;;;;;;22.29;50.48;101272.75;5030960;27;108918;-66
2023/09/28 00:32:37;;;;;;;;;;;;;;;22.26;50.54;101284.66;5027356;27;123336;-66
2023/09/28 00:35:05;;;;;;;;;;;;;;;22.24;50.49;101283.91;5028933;27;123804;-66
2023/09/28 00:37:32;;;;;;;;;;;;;;;22.21;50.56;101280.59;5027065;27;109673;-66
2023/09/28 00:39:59;;;;;;;;;;;;;;;22.20;50.49;101278.91;5034627;27;108788;-66
2023/09/28 00:42:29;;;;;;;;;;;;;;;22.20;50.53;101289.72;5052835;27;123930;-66
2023/09/28 00:44:56;;;;;;;;;;;;;;;22.18;50.55;101292.53;5035165;27;124282;-66
2023/09/28 00:47:24;;;;;;;;;;;;;;;22.15;50.52;101282.00;5023459;27;109068;-66
2023/09/28 00:49:51;;;;;;;;;;;;;;;22.13;50.63;101289.38;5035120;27;108118;-66
2023/09/28 00:52:18;;;;;;;;;;;;;;;22.11;50.55;101296.75;5022759;27;123076;-66
2023/09/28 00:54:47;;;;;;;;;;;;;;;22.10;50.67;101292.34;5041863;27;125075;-66
2023/09/28 00:57:15;;;;;;;;;;;;;;;22.09;50.66;101298.72;5033837;27;110035;-66
2023/09/28 00:59:44;;;;;;;;;;;;;;;22.09;50.61;101304.13;5033116;27;109030;-67
2023/09/28 01:02:11;;;;;;;;;;;;;;;22.07;50.51;101303.41;5023933;27;125141;-67
2023/09/28 01:04:38;;;;;;;;;;;;;;;22.07;50.57;101306.94;5047921;27;124409;-67
2023/09/28 01:07:07;;;;;;;;;;;;;;;22.06;50.64;101304.41;5045524;27;109976;-67
2023/09/28 01:09:34;;;;;;;;;;;;;;;22.03;50.60;101304.66;5016825;28;108458;-66
2023/09/28 01:12:01;;;;;;;;;;;;;;;22.03;50.70;101304.66;5027952;28;123113;-66
2023/09/28 01:14:29;;;;;;;;;;;;;;;22.01;50.59;101307.47;5040977;27;123829;-66
2023/09/28 01:16:58;;;;;;;;;;;;;;;22.00;50.72;101294.13;5055266;27;110473;-66
2023/09/28 01:19:27;;;;;;;;;;;;;;;21.99;50.68;101297.81;5032016;27;108155;-66
2023/09/28 01:21:56;;;;;;;;;;;;;;;21.96;50.66;101294.41;5031923;27;123542;-66
2023/09/28 01:24:23;;;;;;;;;;;;;;;21.95;50.60;101302.63;5041478;27;124040;-66
2023/09/28 01:26:50;;;;;;;;;;;;;;;21.92;50.63;101292.94;5025771;27;110103;-66
2023/09/28 01:29:17;;;;;;;;;;;;;;;21.87;50.54;101299.72;5039234;27;109756;-65
2023/09/28 01:31:44;;;;;;;;;;;;;;;21.83;50.62;101301.84;5021310;28;124409;-66
2023/09/28 01:34:11;;;;;;;;;;;;;;;21.78;50.59;101296.84;5029646;27;122865;-65
2023/09/28 01:36:38;;;;;;;;;;;;;;;21.73;50.64;101298.22;5042193;27;109550;-65
2023/09/28 01:39:08;;;;;;;;;;;;;;;21.71;50.69;101305.56;5025832;27;107813;-66
2023/09/28 01:41:35;;;;;;;;;;;;;;;21.67;50.68;101304.13;5037617;27;123873;-66
2023/09/28 01:44:03;;;;;;;;;;;;;;;21.65;50.76;101300.72;5035269;27;123872;-66
2023/09/28 01:46:30;;;;;;;;;;;;;;;21.62;50.70;101307.19;5028807;27;109962;-66
2023/09/28 01:48:58;;;;;;;;;;;;;;;21.61;50.80;101310.06;5030788;28;108477;-66
2023/09/28 01:51:26;;;;;;;;;;;;;;;21.60;50.83;101308.31;5041861;27;125065;-66
2023/09/28 01:53:53;;;;;;;;;;;;;;;21.56;50.79;101297.78;5031210;27;123941;-66
2023/09/28 01:56:21;;;;;;;;;;;;;;;21.55;50.86;101296.09;5011102;28;108148;-66
2023/09/28 01:58:49;;;;;;;;;;;;;;;21.54;50.84;101299.75;5027825;27;107873;-66
2023/09/28 02:01:20;;;;;;;;;;;;;;;21.52;50.97;101301.72;5031796;27;124582;-66
2023/09/28 02:03:47;;;;;;;;;;;;;;;21.51;50.88;101308.13;5040499;27;125532;-66
2023/09/28 02:06:14;;;;;;;;;;;;;;;21.49;50.90;101312.78;5026869;27;108412;-66
2023/09/28 02:08:41;;;;;;;;;;;;;;;21.48;50.85;101321.84;5051197;27;109289;-66
2023/09/28 02:11:11;;;;;;;;;;;;;;;21.46;50.81;101317.59;5049113;27;124726;-66
2023/09/28 02:13:38;;;;;;;;;;;;;;;21.43;50.83;101318.63;5027404;27;123112;-66
2023/09/28 02:16:10;;;;;;;;;;;;;;;21.41;50.85;101331.38;5042244;27;111225;-66
2023/09/28 02:18:37;;;;;;;;;;;;;;;21.39;50.91;101323.44;5034890;27;109535;-66
2023/09/28 02:21:11;;;;;;;;;;;;;;;21.38;50.98;101331.66;5028265;27;123013;-66
2023/09/28 02:23:37;;;;;;;;;;;;;;;21.39;51.06;101338.75;5034505;27;122924;-65
2023/09/28 02:26:08;;;;;;;;;;;;;;;21.40;51.01;101340.47;5023548;27;108545;-65
2023/09/28 02:28:35;;;;;;;;;;;;;;;21.40;51.09;101335.09;5034460;27;108508;-66
2023/09/28 02:31:07;;;;;;;;;;;;;;;21.38;50.96;101337.91;5030947;27;124273;-66
2023/09/28 02:33:34;;;;;;;;;;;;;;;21.38;51.03;101337.06;5042457;27;124167;-66
2023/09/28 02:36:01;;;;;;;;;;;;;;;21.37;51.04;101335.31;5030293;27;108490;-66
2023/09/28 02:38:28;;;;;;;;;;;;;;;21.36;51.06;101333.59;5043042;27;108853;-66
2023/09/28 02:40:55;;;;;;;;;;;;;;;21.36;51.14;101339.00;5017237;27;123153;-67
2023/09/28 02:43:22;;;;;;;;;;;;;;;21.35;51.07;101337.28;5033038;27;124343;-66
2023/09/28 02:45:50;;;;;;;;;;;;;;;21.35;51.11;101337.28;5049371;27;109548;-67
2023/09/28 02:48:17;;;;;;;;;;;;;;;21.35;51.11;101343.53;5026687;28;108030;-67
2023/09/28 02:50:44;;;;;;;;;;;;;;;21.33;51.10;101339.25;5021996;28;123180;-66
2023/09/28 02:53:11;;;;;;;;;;;;;;;21.32;51.14;101337.53;5035328;27;124471;-66
2023/09/28 02:55:38;;;;;;;;;;;;;;;21.32;51.07;101345.63;5044471;27;110212;-66
2023/09/28 02:58:06;;;;;;;;;;;;;;;21.31;51.20;101346.63;5036930;27;108330;-66
2023/09/28 03:00:34;;;;;;;;;;;;;;;21.32;51.19;101345.63;5024106;28;124002;-66
2023/09/28 03:03:05;;;;;;;;;;;;;;;21.31;51.09;101352.00;5016696;27;123201;-66
2023/09/28 03:05:32;;;;;;;;;;;;;;;21.28;51.15;101346.88;5047064;27;110574;-66
2023/09/28 03:08:00;;;;;;;;;;;;;;;21.26;51.17;101349.69;5044774;27;110169;-66
2023/09/28 03:10:27;;;;;;;;;;;;;;;21.27;51.15;101355.94;5033248;27;125162;-66
2023/09/28 03:12:56;;;;;;;;;;;;;;;21.25;51.08;101363.28;5015963;28;122931;-66
2023/09/28 03:15:24;;;;;;;;;;;;;;;21.22;51.16;101350.06;5038240;27;110092;-66
2023/09/28 03:17:51;;;;;;;;;;;;;;;21.19;51.17;101354.72;5035319;27;107965;-66
2023/09/28 03:20:21;;;;;;;;;;;;;;;21.18;51.17;101358.38;5035746;27;123873;-66
2023/09/28 03:22:52;;;;;;;;;;;;;;;21.17;51.25;101351.31;5016797;27;122857;-66
2023/09/28 03:25:22;;;;;;;;;;;;;;;21.15;51.25;101358.66;5034440;27;110104;-66
2023/09/28 03:27:50;;;;;;;;;;;;;;;21.15;51.26;101369.44;5034734;27;108351;-66
2023/09/28 03:30:18;;;;;;;;;;;;;;;21.13;51.27;101374.06;5008169;27;123372;-66
2023/09/28 03:32:49;;;;;;;;;;;;;;;21.11;51.28;101367.94;5036953;27;124084;-67
2023/09/28 03:35:17;;;;;;;;;;;;;;;21.10;51.29;101377.03;5046783;27;110283;-67
2023/09/28 03:37:45;;;;;;;;;;;;;;;21.09;51.16;101375.31;5043897;27;108571;-67
2023/09/28 03:40:13;;;;;;;;;;;;;;;21.07;51.19;101382.66;5033474;27;124424;-67
2023/09/28 03:42:41;;;;;;;;;;;;;;;21.06;51.29;101383.66;5028384;28;122833;-66
2023/09/28 03:45:09;;;;;;;;;;;;;;;21.03;51.34;101383.03;5041968;27;110431;-66
2023/09/28 03:47:40;;;;;;;;;;;;;;;21.02;51.29;101390.28;5031940;27;108591;-66
2023/09/28 03:50:11;;;;;;;;;;;;;;;21.00;51.36;101389.50;5030321;27;124247;-66
2023/09/28 03:52:39;;;;;;;;;;;;;;;20.98;51.41;101399.56;5032694;27;123569;-66
2023/09/28 03:55:10;;;;;;;;;;;;;;;20.96;51.33;101406.91;5023621;27;110101;-67
2023/09/28 03:57:37;;;;;;;;;;;;;;;20.94;51.41;101403.47;5051465;27;109495;-67
2023/09/28 04:00:06;;;;;;;;;;;;;;;20.93;51.39;101404.47;5036980;27;125070;-67
2023/09/28 04:02:43;;;;;;;;;;;;;;;20.90;51.46;101415.47;5031597;27;124488;-67
2023/09/28 04:05:10;;;;;;;;;;;;;;;20.88;51.38;101423.66;5039105;27;109915;-67
2023/09/28 04:07:38;;;;;;;;;;;;;;;20.87;51.42;101423.78;5032417;27;107937;-67
2023/09/28 04:10:05;;;;;;;;;;;;;;;20.86;51.50;101416.72;5036933;27;124188;-66
2023/09/28 04:12:32;;;;;;;;;;;;;;;20.84;51.42;101424.06;5050622;27;123999;-67
2023/09/28 04:14:59;;;;;;;;;;;;;;;20.83;51.52;101416.94;5033117;27;109585;-67
2023/09/28 04:17:26;;;;;;;;;;;;;;;20.82;51.63;101420.63;5041456;27;109091;-66
2023/09/28 04:19:54;;;;;;;;;;;;;;;20.79;51.66;101417.19;5021604;28;124416;-66
2023/09/28 04:22:21;;;;;;;;;;;;;;;20.79;51.56;101422.59;5032944;27;124394;-66
2023/09/28 04:24:48;;;;;;;;;;;;;;;20.78;51.63;101415.47;5040376;27;109544;-65
2023/09/28 04:27:15;;;;;;;;;;;;;;;20.78;51.63;101415.47;5033223;27;109406;-66
2023/09/28 04:29:42;;;;;;;;;;;;;;;20.77;51.63;101419.13;5029361;27;125641;-65
2023/09/28 04:32:09;;;;;;;;;;;;;;;20.77;51.60;101416.44;5015035;28;123976;-66
2023/09/28 04:34:39;;;;;;;;;;;;;;;20.76;51.57;101422.81;5040288;27;109815;-65
2023/09/28 04:37:06;;;;;;;;;;;;;;;20.74;51.68;101419.38;5051061;27;108704;-66
2023/09/28 04:39:34;;;;;;;;;;;;;;;20.73;51.70;101423.03;5033681;27;125688;-66
2023/09/28 04:42:01;;;;;;;;;;;;;;;20.71;51.60;101416.94;5038900;27;124910;-66
2023/09/28 04:44:29;;;;;;;;;;;;;;;20.71;51.71;101413.38;5034942;27;110137;-66
2023/09/28 04:46:56;;;;;;;;;;;;;;;20.69;51.60;101416.19;5017067;27;109724;-66
2023/09/28 04:49:24;;;;;;;;;;;;;;;20.68;51.67;101411.81;5034823;27;123621;-67
2023/09/28 04:51:51;;;;;;;;;;;;;;;20.65;51.68;101414.72;5037554;27;124869;-67
2023/09/28 04:54:19;;;;;;;;;;;;;;;20.63;51.67;101430.16;5052596;27;109609;-66
2023/09/28 04:56:46;;;;;;;;;;;;;;;20.60;51.65;101433.06;5035196;27;109515;-66
2023/09/28 04:59:13;;;;;;;;;;;;;;;20.56;51.70;101426.19;5043557;27;124869;-66
2023/09/28 05:01:40;;;;;;;;;;;;;;;20.54;51.79;101433.53;5035938;27;124625;-66
2023/09/28 05:04:11;;;;;;;;;;;;;;;20.52;51.70;101432.78;5019497;28;110021;-66
2023/09/28 05:06:40;;;;;;;;;;;;;;;20.49;51.97;101436.56;5050820;27;109715;-67
2023/09/28 05:09:08;;;;;;;;;;;;;;;20.47;51.81;101437.66;5036570;27;124524;-67
2023/09/28 05:11:36;;;;;;;;;;;;;;;20.42;51.75;101436.19;5038517;27;124953;-66
2023/09/28 05:14:03;;;;;;;;;;;;;;;20.40;51.83;101448.91;5036060;27;109611;-66
2023/09/28 05:16:30;;;;;;;;;;;;;;;20.35;51.81;101443.00;5038976;27;109217;-66
2023/09/28 05:18:57;;;;;;;;;;;;;;;20.32;51.73;101450.47;5034233;27;124184;-66
2023/09/28 05:21:24;;;;;;;;;;;;;;;20.30;51.86;101458.63;5033925;27;124597;-66
2023/09/28 05:23:51;;;;;;;;;;;;;;;20.28;51.85;101465.13;5036289;27;109415;-66
2023/09/28 05:26:19;;;;;;;;;;;;;;;20.26;51.99;101472.47;5035967;27;109142;-65
2023/09/28 05:28:46;;;;;;;;;;;;;;;20.22;51.85;101477.19;5032782;27;124430;-66
2023/09/28 05:31:13;;;;;;;;;;;;;;;20.20;51.97;101484.53;5033722;27;124065;-66
2023/09/28 05:33:41;;;;;;;;;;;;;;;20.17;51.99;101492.81;5025564;27;109300;-66
2023/09/28 05:36:08;;;;;;;;;;;;;;;20.14;52.00;101485.00;5019923;27;108452;-66
2023/09/28 05:38:36;;;;;;;;;;;;;;;20.12;52.05;101486.97;5051142;27;125083;-66
2023/09/28 05:41:02;;;;;;;;;;;;;;;20.10;52.11;101488.88;5020933;28;123222;-66
2023/09/28 05:43:30;;;;;;;;;;;;;;;20.09;51.98;101492.56;5040622;27;109467;-66
2023/09/28 05:45:57;;;;;;;;;;;;;;;20.05;52.08;101493.75;5029999;27;107614;-66
2023/09/28 05:48:24;;;;;;;;;;;;;;;20.02;52.05;101498.41;5046161;27;124592;-66
2023/09/28 05:50:52;;;;;;;;;;;;;;;20.00;52.10;101511.09;5042630;27;124575;-66
2023/09/28 05:53:19;;;;;;;;;;;;;;;19.96;52.15;101504.22;5042891;27;109773;-66
2023/09/28 05:55:49;;;;;;;;;;;;;;;19.93;52.16;101515.22;5033897;27;108791;-66
2023/09/28 05:58:16;;;;;;;;;;;;;;;19.92;52.24;101518.84;5040040;27;124109;-66
2023/09/28 06:00:43;;;;;;;;;;;;;;;19.90;52.27;101514.59;5034032;27;124223;-66
2023/09/28 06:03:11;;;;;;;;;;;;;;;19.89;52.31;101519.09;5043543;27;109908;-66
2023/09/28 06:05:38;;;;;;;;;;;;;;;19.87;52.24;101521.03;5043073;27;109151;-66
2023/09/28 06:08:05;;;;;;;;;;;;;;;19.87;52.29;101526.41;5029145;27;123301;-65
2023/09/28 06:10:37;;;;;;;;;;;;;;;19.87;52.36;101541.69;5047479;27;124248;-65
2023/09/28 06:13:05;;;;;;;;;;;;;;;19.86;52.33;101540.81;5049068;27;109994;-65
2023/09/28 06:15:32;;;;;;;;;;;;;;;19.85;52.46;101549.84;5042874;27;108672;-65
2023/09/28 06:17:59;;;;;;;;;;;;;;;19.85;52.50;101549.84;5042975;27;124406;-65
2023/09/28 06:20:26;;;;;;;;;;;;;;;19.85;52.54;101549.84;5042378;27;124679;-65
2023/09/28 06:22:53;;;;;;;;;;;;;;;19.86;52.47;101551.59;5042316;27;111316;-64
2023/09/28 06:25:20;;;;;;;;;;;;;;;19.87;52.57;101553.28;5039079;27;109905;-64
2023/09/28 06:27:47;;;;;;;;;;;;;;;19.88;52.56;101538.88;5046818;27;124859;-64
2023/09/28 06:30:14;;;;;;;;;;;;;;;19.90;52.55;101536.94;5035444;27;123953;-64
2023/09/28 06:32:41;;;;;;;;;;;;;;;19.93;52.48;101536.72;5042810;27;109434;-64
2023/09/28 06:35:11;;;;;;;;;;;;;;;19.94;52.52;101538.41;5041682;27;109241;-64
2023/09/28 06:37:39;;;;;;;;;;;;;;;19.96;52.61;101541.84;5032425;27;123298;-64
2023/09/28 06:40:06;;;;;;;;;;;;;;;20.01;52.76;101550.44;5043868;27;123949;-64
2023/09/28 06:42:33;;;;;;;;;;;;;;;20.07;52.73;101554.50;5043389;27;109203;-65
2023/09/28 06:45:06;;;;;;;;;;;;;;;20.12;52.70;101563.13;5039365;27;109079;-64
2023/09/28 06:47:33;;;;;;;;;;;;;;;20.17;52.77;101565.44;5051872;27;123928;-64
2023/09/28 06:50:20;;;;;;;;;;;;;;;20.23;52.69;101570.38;5043167;27;125704;-64
2023/09/28 06:52:47;;;;;;;;;;;;;;;20.30;52.85;101560.88;5030802;27;109915;-64
2023/09/28 06:55:15;;;;;;;;;;;;;;;20.37;52.90;101556.75;5048403;27;108725;-64
2023/09/28 06:57:42;;;;;;;;;;;;;;;20.44;52.88;101557.16;5044462;27;124508;-64
2023/09/28 07:00:09;;;;;;;;;;;;;;;20.50;52.77;101561.22;5036937;27;124627;-64
2023/09/28 07:02:36;;;;;;;;;;;;;;;20.59;52.88;101565.91;5035469;27;109478;-64
2023/09/28 07:05:03;;;;;;;;;;;;;;;20.67;52.86;101571.59;5034834;27;108932;-64
2023/09/28 07:07:31;;;;;;;;;;;;;;;20.74;52.81;101586.31;5024114;27;125056;-64
2023/09/28 07:09:58;;;;;;;;;;;;;;;20.82;52.70;101588.41;5025626;28;122855;-64
2023/09/28 07:12:25;;;;;;;;;;;;;;;20.88;52.80;101597.84;5024373;27;109355;-64
2023/09/28 07:14:52;;;;;;;;;;;;;;;20.95;52.76;101599.09;5032749;27;109654;-65
2023/09/28 07:17:19;;;;;;;;;;;;;;;21.00;52.84;101591.50;5033857;27;124875;-65
2023/09/28 07:19:47;;;;;;;;;;;;;;;21.05;52.74;101594.69;5033570;27;124458;-64
2023/09/28 07:22:15;;;;;;;;;;;;;;;21.09;52.77;101606.94;5035904;27;109355;-65
2023/09/28 07:24:43;;;;;;;;;;;;;;;21.13;52.81;101608.41;5034886;27;108690;-65
2023/09/28 07:27:10;;;;;;;;;;;;;;;21.19;52.86;101607.97;5039762;27;124372;-65
2023/09/28 07:29:38;;;;;;;;;;;;;;;21.27;52.86;101604.69;5046615;27;124257;-65
2023/09/28 07:32:06;;;;;;;;;;;;;;;21.34;52.74;101599.66;5038346;27;109956;-64
2023/09/28 07:34:34;;;;;;;;;;;;;;;21.41;52.75;101587.41;5034243;27;108409;-64
2023/09/28 07:37:01;;;;;;;;;;;;;;;21.46;52.80;101582.56;5051932;27;124952;-65
2023/09/28 07:39:29;;;;;;;;;;;;;;;21.51;52.82;101585.75;5052251;27;124617;-65
2023/09/28 07:41:56;;;;;;;;;;;;;;;21.57;52.67;101590.66;5052816;27;110064;-65
2023/09/28 07:44:23;;;;;;;;;;;;;;;21.63;52.67;101593.84;5048485;27;109121;-64
2023/09/28 07:46:50;;;;;;;;;;;;;;;21.67;52.68;101596.16;5041932;27;124712;-65
2023/09/28 07:49:17;;;;;;;;;;;;;;;21.71;52.64;101602.16;5046236;27;123984;-64
2023/09/28 07:51:44;;;;;;;;;;;;;;;21.74;52.54;101605.47;5034945;27;109789;-65
2023/09/28 07:54:11;;;;;;;;;;;;;;;21.79;52.60;101621.25;5034415;27;108159;-64
2023/09/28 07:56:38;;;;;;;;;;;;;;;21.84;52.64;101629.00;5033910;27;123315;-65
2023/09/28 07:59:05;;;;;;;;;;;;;;;21.88;52.50;101625.91;5031448;27;124007;-65
2023/09/28 08:01:36;;;;;;;;;;;;;;;21.92;52.44;101626.53;5018710;27;110760;-65
2023/09/28 08:04:03;;;;;;;;;;;;;;;21.93;52.50;101633.66;5051416;27;110464;-65
2023/09/28 08:06:30;;;;;;;;;;;;;;;21.97;52.63;101641.38;5048340;27;123989;-65
2023/09/28 08:08:58;;;;;;;;;;;;;;;22.02;52.57;101637.44;5046304;27;124583;-64
2023/09/28 08:11:25;;;;;;;;;;;;;;;22.07;52.55;101636.06;5042466;27;109428;-65
2023/09/28 08:13:52;;;;;;;;;;;;;;;22.14;52.71;101652.63;5040798;27;109571;-65
2023/09/28 08:16:20;;;;;;;;;;;;;;;22.19;52.63;101653.13;5033890;27;124530;-65
2023/09/28 08:18:48;;;;;;;;;;;;;;;22.25;52.56;101649.94;5033936;27;125511;-65
2023/09/28 08:21:15;;;;;;;;;;;;;;;22.32;52.64;101651.16;5035155;27;109875;-65
2023/09/28 08:23:42;;;;;;;;;;;;;;;22.40;52.59;101657.78;5030674;28;107891;-65
2023/09/28 08:26:09;;;;;;;;;;;;;;;22.44;52.50;101648.44;5035353;27;125156;-65
2023/09/28 08:28:37;;;;;;;;;;;;;;;22.50;52.50;101647.94;5045197;27;124730;-65
2023/09/28 08:31:05;;;;;;;;;;;;;;;22.55;52.56;101656.50;5034295;27;109964;-65
2023/09/28 08:33:32;;;;;;;;;;;;;;;22.62;52.45;101657.72;5044396;27;108649;-65
2023/09/28 08:35:59;;;;;;;;;;;;;;;22.66;52.30;101659.19;5053093;27;125284;-65
2023/09/28 08:38:26;;;;;;;;;;;;;;;22.70;52.45;101655.22;5033353;27;124117;-65
2023/09/28 08:40:59;;;;;;;;;;;;;;;22.77;52.46;101654.72;5052500;27;110028;-65
2023/09/28 08:43:30;;;;;;;;;;;;;;;22.82;52.40;101657.88;5050895;27;108993;-65
2023/09/28 08:45:57;;;;;;;;;;;;;;;22.88;52.45;101657.34;5055644;27;124852;-65
2023/09/28 08:48:27;;;;;;;;;;;;;;;22.96;52.47;101675.63;5036905;27;123186;-65
2023/09/28 08:50:59;;;;;;;;;;;;;;;23.03;52.29;101671.41;5051100;27;110262;-65
2023/09/28 08:53:26;;;;;;;;;;;;;;;23.09;52.14;101666.41;5051811;27;109620;-65
2023/09/28 08:55:56;;;;;;;;;;;;;;;23.10;52.16;101676.19;5043709;27;124359;-65
2023/09/28 08:58:24;;;;;;;;;;;;;;;23.13;52.25;101688.59;5035226;27;122896;-65
2023/09/28 09:00:51;;;;;;;;;;;;;;;23.15;52.18;101691.16;5052408;27;109814;-65
2023/09/28 09:03:20;;;;;;;;;;;;;;;23.18;52.15;101701.72;5051257;27;108755;-64
2023/09/28 09:05:50;;;;;;;;;;;;;;;23.22;52.25;101703.16;5051150;27;124548;-65
2023/09/28 09:08:17;;;;;;;;;;;;;;;23.26;52.00;101688.41;5043276;27;124553;-65
2023/09/28 09:10:46;;;;;;;;;;;;;;;23.28;51.97;101691.81;5032058;27;108910;-65
2023/09/28 09:13:16;;;;;;;;;;;;;;;23.33;52.15;101689.59;5023444;27;109085;-65
2023/09/28 09:15:44;;;;;;;;;;;;;;;23.40;52.01;101690.78;5045520;27;123923;-65
2023/09/28 09:18:18;;;;;;;;;;;;;;;23.48;52.02;101699.09;5049210;27;123854;-65
2023/09/28 09:20:46;;;;;;;;;;;;;;;23.50;51.83;101694.41;5049923;27;109651;-65
2023/09/28 09:23:14;;;;;;;;;;;;;;;23.49;51.89;101695.41;5042002;27;108650;-65
2023/09/28 09:25:42;;;;;;;;;;;;;;;23.46;51.42;101692.94;5023750;27;123950;-65
2023/09/28 09:28:10;;;;;;;;;;;;;;;23.41;51.57;101703.31;5041432;27;126870;-65
2023/09/28 09:30:37;;;;;;;;;;;;;;;23.36;51.68;101694.75;5031715;27;109032;-65
2023/09/28 09:33:08;;;;;;;;;;;;;;;23.33;51.70;101689.59;5050843;27;109184;-65
2023/09/28 09:35:38;;;;;;;;;;;;;;;23.36;51.96;101700.16;5053873;27;124515;-65
2023/09/28 09:38:06;;;;;;;;;;;;;;;23.43;51.80;101704.06;5050987;27;124434;-65
2023/09/28 09:40:34;;;;;;;;;;;;;;;23.44;51.83;101700.34;5053882;27;110054;-65
2023/09/28 09:43:07;;;;;;;;;;;;;;;23.49;51.92;101700.81;5047977;27;109665;-65
2023/09/28 09:45:40;;;;;;;;;;;;;;;23.59;51.85;101710.84;5034628;27;124378;-65
2023/09/28 09:48:09;;;;;;;;;;;;;;;23.67;51.86;101711.00;5055106;27;124812;-65
2023/09/28 09:50:38;;;;;;;;;;;;;;;23.77;52.09;101709.25;5054528;27;109795;-65
2023/09/28 09:53:07;;;;;;;;;;;;;;;23.85;51.81;101701.31;5055981;27;108563;-65
2023/09/28 09:55:39;;;;;;;;;;;;;;;23.97;51.82;101706.66;5052246;27;124274;-65
2023/09/28 09:58:13;;;;;;;;;;;;;;;24.04;51.71;101705.97;5052166;27;124941;-65
2023/09/28 10:00:41;;;;;;;;;;;;;;;24.08;51.65;101704.69;5039721;27;109013;-65
2023/09/28 10:03:09;;;;;;;;;;;;;;;24.14;51.53;101706.00;5054513;27;108591;-65
2023/09/28 10:05:37;;;;;;;;;;;;;;;24.18;51.61;101707.44;5051595;27;124383;-65
2023/09/28 10:08:05;;;;;;;;;;;;;;;24.25;51.99;101708.59;5037193;27;123133;-65
2023/09/28 10:10:33;;;;;;;;;;;;;;;24.36;51.87;101699.53;5029645;27;109378;-65
2023/09/28 10:13:01;;;;;;;;;;;;;;;24.46;51.79;101705.81;5048839;27;109792;-65
2023/09/28 10:15:28;;;;;;;;;;;;;;;24.57;51.70;101712.16;5032457;27;124506;-65
2023/09/28 10:17:55;;;;;;;;;;;;;;;24.62;51.36;101708.03;5032079;27;124649;-65
2023/09/28 10:20:24;;;;;;;;;;;;;;;24.65;51.62;101706.88;5044160;27;109385;-65
2023/09/28 10:22:51;;;;;;;;;;;;;;;24.67;51.46;101692.19;5037609;27;109157;-65
2023/09/28 10:25:18;;;;;;;;;;;;;;;24.66;51.26;101690.50;5038593;27;124456;-65
2023/09/28 10:27:45;;;;;;;;;;;;;;;24.65;51.26;101694.19;5038336;27;124230;-65
2023/09/28 10:30:19;;;;;;;;;;;;;;;24.68;51.27;101691.19;5034387;27;110306;-65
2023/09/28 10:32:50;;;;;;;;;;;;;;;24.70;51.12;101691.06;5048628;27;109643;-65
2023/09/28 10:35:20;;;;;;;;;;;;;;;24.73;51.17;101679.94;5041552;27;124065;-65
2023/09/28 10:38:07;;;;;;;;;;;;;;;24.77;51.36;101673.25;5022240;28;123016;-65
2023/09/28 10:40:34;;;;;;;;;;;;;;;24.81;51.21;101671.97;5042622;27;109488;-66
2023/09/28 10:43:38;;;;;;;;;;;;;;;24.87;51.27;101681.38;5042071;27;109305;-65
2023/09/28 10:46:06;;;;;;;;;;;;;;;24.92;51.34;101680.94;5047158;27;124298;-66
2023/09/28 10:48:44;;;;;;;;;;;;;;;24.94;51.11;101682.53;5032977;27;124436;-65
2023/09/28 10:51:12;;;;;;;;;;;;;;;24.99;51.05;101691.06;5048020;27;109132;-67
2023/09/28 10:53:39;;;;;;;;;;;;;;;25.02;51.07;101690.78;5049964;27;109416;-66
2023/09/28 10:56:07;;;;;;;;;;;;;;;25.05;50.93;101690.53;5032785;27;124126;-67
2023/09/28 10:58:34;;;;;;;;;;;;;;;25.08;50.90;101705.63;5050089;27;124031;-66
2023/09/28 11:01:06;;;;;;;;;;;;;;;25.09;50.77;101701.06;5024127;27;109979;-66
2023/09/28 11:03:34;;;;;;;;;;;;;;;25.11;50.92;101696.34;5045480;27;108546;-66
2023/09/28 11:06:05;;;;;;;;;;;;;;;25.15;50.75;101695.09;5037155;27;124243;-67
2023/09/28 11:08:33;;;;;;;;;;;;;;;25.16;51.10;101696.78;5031055;27;124795;-66
2023/09/28 11:11:01;;;;;;;;;;;;;;;25.16;50.72;101688.66;5051533;27;109578;-66
2023/09/28 11:13:29;;;;;;;;;;;;;;;25.17;50.80;101706.63;5051843;27;109214;-66
2023/09/28 11:15:57;;;;;;;;;;;;;;;25.20;50.70;101706.34;5042822;27;125085;-66
2023/09/28 11:18:28;;;;;;;;;;;;;;;25.21;50.95;101695.34;5039420;27;124988;-66
2023/09/28 11:20:56;;;;;;;;;;;;;;;25.23;50.67;101697.94;5038988;27;110995;-66
2023/09/28 11:23:24;;;;;;;;;;;;;;;25.26;50.86;101713.94;5021564;28;109836;-65
2023/09/28 11:25:52;;;;;;;;;;;;;;;25.23;50.38;101716.94;5044502;27;124349;-65
2023/09/28 11:28:21;;;;;;;;;;;;;;;25.21;50.81;101727.03;5040578;27;123579;-65
2023/09/28 11:31:10;;;;;;;;;;;;;;;25.22;50.38;101720.59;5040213;27;109557;-65
2023/09/28 11:33:38;;;;;;;;;;;;;;;25.19;50.42;101718.19;5023876;27;107748;-65
2023/09/28 11:36:06;;;;;;;;;;;;;;;25.14;50.44;101712.34;5027572;27;123168;-65
2023/09/28 11:38:33;;;;;;;;;;;;;;;25.11;50.45;101699.94;5026214;27;122794;-65
2023/09/28 11:41:04;;;;;;;;;;;;;;;25.09;50.62;101712.78;5025576;27;109989;-65
2023/09/28 11:43:32;;;;;;;;;;;;;;;25.03;50.31;101714.19;5044448;27;108791;-65
2023/09/28 11:46:00;;;;;;;;;;;;;;;24.98;50.28;101711.06;5047663;27;125096;-65
2023/09/28 11:48:27;;;;;;;;;;;;;;;24.96;50.48;101710.34;5050850;27;124206;-65
2023/09/28 11:50:54;;;;;;;;;;;;;;;24.96;50.45;101713.06;5050629;27;109197;-65
2023/09/28 11:53:22;;;;;;;;;;;;;;;24.96;50.67;101707.63;5047813;27;108821;-65
2023/09/28 11:55:49;;;;;;;;;;;;;;;25.00;50.64;101709.06;5020117;27;123031;-65
2023/09/28 11:58:22;;;;;;;;;;;;;;;25.05;50.71;101705.91;5047822;27;124110;-65
2023/09/28 12:00:49;;;;;;;;;;;;;;;25.07;50.28;101706.63;5047300;27;109455;-66
2023/09/28 12:03:18;;;;;;;;;;;;;;;25.08;50.70;101699.38;5047884;27;110536;-66
2023/09/28 12:05:49;;;;;;;;;;;;;;;25.10;50.58;101691.94;5029062;28;117503;-66
2023/09/28 12:08:17;;;;;;;;;;;;;;;25.11;50.42;101696.34;5040582;27;124187;-66
2023/09/28 12:10:44;;;;;;;;;;;;;;;25.13;50.55;101694.34;5027138;27;109991;-67
2023/09/28 12:13:11;;;;;;;;;;;;;;;25.17;50.46;101698.50;5028104;27;108971;-66
2023/09/28 12:15:39;;;;;;;;;;;;;;;25.21;50.34;101695.34;5030322;28;124445;-66
2023/09/28 12:18:06;;;;;;;;;;;;;;;25.29;50.69;101686.53;5030294;28;124283;-66
2023/09/28 12:20:33;;;;;;;;;;;;;;;25.37;50.65;101694.81;5032683;28;109889;-66
2023/09/28 12:23:00;;;;;;;;;;;;;;;25.44;50.67;101689.63;5024792;28;109221;-66
2023/09/28 12:25:33;;;;;;;;;;;;;;;25.55;50.57;101691.34;5025683;28;125171;-68
2023/09/28 12:28:00;;;;;;;;;;;;;;;25.64;50.55;101688.59;5034550;27;124981;-68
2023/09/28 12:30:28;;;;;;;;;;;;;;;25.73;50.44;101689.56;5027825;27;109202;-68
2023/09/28 12:32:57;;;;;;;;;;;;;;;25.80;50.45;101690.66;5024089;28;108501;-66